Time;durP1;ratioP1;P1;durP2;ratioP2;P2;SDS_P1;SDS_P2;PMS_P1;PMS_P2;Temp;Humidity;BMP_temperature;BMP_pressure;BME280_temperature;BME280_humidity;BME280_pressure;Samples;Min_cycle;Max_cycle;Signal;HPM_P1;HPM_P2
2023/04/01 00:00:51;;;;;;;19.20;9.93;;;;;;;;;;5029971;28;20249;-64
2023/04/01 00:03:19;;;;;;;18.20;10.20;;;;;;;;;;5030224;28;20222;-64
2023/04/01 00:05:46;;;;;;;20.77;10.67;;;;;;;;;;5027791;28;20179;-65
2023/04/01 00:08:12;;;;;;;26.17;10.77;;;;;;;;;;5029725;28;20211;-64
2023/04/01 00:10:39;;;;;;;25.20;9.77;;;;;;;;;;5030516;28;20183;-64
2023/04/01 00:13:06;;;;;;;23.77;11.17;;;;;;;;;;5029661;28;20294;-64
2023/04/01 00:15:32;;;;;;;29.27;10.23;;;;;;;;;;5028616;28;20205;-64
2023/04/01 00:18:02;;;;;;;29.97;10.13;;;;;;;;;;5032725;28;20205;-64
2023/04/01 00:20:29;;;;;;;27.93;10.73;;;;;;;;;;5010778;28;20188;-64
2023/04/01 00:22:57;;;;;;;31.13;9.00;;;;;;;;;;5032230;28;20195;-64
2023/04/01 00:25:24;;;;;;;37.33;8.73;;;;;;;;;;5029281;28;20225;-64
2023/04/01 00:27:50;;;;;;;25.63;8.30;;;;;;;;;;5029833;28;20188;-64
2023/04/01 00:30:17;;;;;;;37.50;9.63;;;;;;;;;;5012277;28;20659;-64
2023/04/01 00:32:45;;;;;;;21.97;7.53;;;;;;;;;;5029464;28;20210;-64
2023/04/01 00:35:12;;;;;;;25.00;8.40;;;;;;;;;;5029517;28;20196;-64
2023/04/01 00:37:39;;;;;;;27.23;8.23;;;;;;;;;;5029434;28;20302;-64
2023/04/01 00:40:08;;;;;;;31.03;8.07;;;;;;;;;;5040449;28;20226;-64
2023/04/01 00:42:35;;;;;;;26.07;8.00;;;;;;;;;;5003198;28;20457;-64
2023/04/01 00:45:22;;;;;;;13.33;7.13;;;;;;;;;;5012348;28;20238;-64
2023/04/01 00:47:50;;;;;;;15.53;7.00;;;;;;;;;;5015701;28;20565;-64
2023/04/01 00:50:17;;;;;;;14.77;7.23;;;;;;;;;;5027071;28;20194;-64
2023/04/01 00:52:44;;;;;;;10.23;6.53;;;;;;;;;;5012595;28;20671;-64
2023/04/01 00:55:11;;;;;;;9.53;5.70;;;;;;;;;;4996330;28;20191;-64
2023/04/01 00:57:38;;;;;;;8.57;5.57;;;;;;;;;;5009367;28;20499;-64
2023/04/01 01:00:07;;;;;;;8.97;5.30;;;;;;;;;;4993255;28;20681;-64
2023/04/01 01:02:34;;;;;;;7.27;5.00;;;;;;;;;;5017307;28;20210;-64
2023/04/01 01:05:01;;;;;;;6.47;5.20;;;;;;;;;;4995782;28;20291;-64
2023/04/01 01:07:57;;;;;;;7.77;4.73;;;;;;;;;;5028828;28;20563;-64
2023/04/01 01:10:25;;;;;;;7.13;5.13;;;;;;;;;;4945772;28;20455;-64
2023/04/01 01:12:55;;;;;;;7.20;5.10;;;;;;;;;;5009526;28;21118;-64
2023/04/01 01:15:25;;;;;;;5.17;3.77;;;;;;;;;;5007825;28;20477;-64
2023/04/01 01:17:53;;;;;;;5.13;3.50;;;;;;;;;;5029036;28;20747;-64
2023/04/01 01:20:40;;;;;;;4.63;3.50;;;;;;;;;;5029084;28;20988;-64
2023/04/01 01:23:27;;;;;;;4.47;3.63;;;;;;;;;;5011028;28;20545;-64
2023/04/01 01:25:56;;;;;;;4.43;3.80;;;;;;;;;;5028406;28;20497;-64
2023/04/01 01:28:23;;;;;;;4.50;3.47;;;;;;;;;;5028152;28;20195;-64
2023/04/01 01:31:08;;;;;;;4.43;3.50;;;;;;;;;;5027852;28;20797;-64
2023/04/01 01:33:38;;;;;;;7.23;3.37;;;;;;;;;;5028181;28;20188;-64
2023/04/01 01:36:06;;;;;;;4.70;3.47;;;;;;;;;;5011506;28;20462;-64
2023/04/01 01:38:34;;;;;;;5.57;3.43;;;;;;;;;;4994902;28;20599;-64
2023/04/01 01:41:03;;;;;;;3.90;3.23;;;;;;;;;;4994315;28;20458;-64
2023/04/01 02:15:24;;;;;;;7.97;4.80;;;;;;;;;;5009064;28;20410;-64
2023/04/01 02:17:52;;;;;;;6.33;4.37;;;;;;;;;;5008286;28;20475;-63
2023/04/01 02:20:22;;;;;;;5.87;4.60;;;;;;;;;;4992566;28;20584;-63
2023/04/01 02:22:53;;;;;;;7.63;5.10;;;;;;;;;;5009777;28;20853;-64
2023/04/01 02:25:29;;;;;;;6.73;4.53;;;;;;;;;;4992187;28;20462;-64
2023/04/01 02:27:56;;;;;;;8.13;5.17;;;;;;;;;;4996477;28;20445;-64
2023/04/01 02:30:23;;;;;;;5.43;4.30;;;;;;;;;;5030620;28;20453;-64
2023/04/01 02:32:50;;;;;;;8.83;4.87;;;;;;;;;;5027782;28;20552;-64
2023/04/01 02:35:17;;;;;;;8.03;4.37;;;;;;;;;;4994113;28;20446;-63
2023/04/01 02:37:44;;;;;;;6.53;4.20;;;;;;;;;;5013118;28;20477;-64
2023/04/01 02:40:11;;;;;;;7.23;4.80;;;;;;;;;;5000150;28;20470;-63
2023/04/01 02:42:38;;;;;;;7.13;4.37;;;;;;;;;;5026789;28;20450;-63
2023/04/01 02:45:05;;;;;;;7.23;4.53;;;;;;;;;;5030334;28;20445;-63
2023/04/01 02:47:32;;;;;;;7.90;5.00;;;;;;;;;;5008656;28;20998;-64
2023/04/01 02:49:59;;;;;;;7.00;4.73;;;;;;;;;;4990278;28;20478;-63
2023/04/01 02:52:26;;;;;;;6.67;4.90;;;;;;;;;;5018359;28;20518;-64
2023/04/01 02:54:53;;;;;;;6.33;4.73;;;;;;;;;;5010649;28;20492;-64
2023/04/01 02:57:20;;;;;;;9.67;4.90;;;;;;;;;;5026545;28;20837;-64
2023/04/01 02:59:47;;;;;;;8.93;4.20;;;;;;;;;;5008752;28;20473;-64
2023/04/01 03:02:14;;;;;;;6.23;4.57;;;;;;;;;;5027998;28;20457;-63
2023/04/01 03:04:41;;;;;;;7.73;4.73;;;;;;;;;;5009346;28;20539;-63
2023/04/01 03:07:09;;;;;;;10.40;5.83;;;;;;;;;;5026166;28;21019;-64
2023/04/01 03:09:36;;;;;;;17.50;5.30;;;;;;;;;;4999294;28;20543;-63
2023/04/01 03:12:03;;;;;;;11.07;5.57;;;;;;;;;;4993145;28;20445;-63
2023/04/01 03:14:36;;;;;;;8.93;5.50;;;;;;;;;;5005938;28;20454;-63
2023/04/01 03:17:02;;;;;;;7.00;5.07;;;;;;;;;;5024805;28;20480;-63
2023/04/01 03:19:29;;;;;;;10.40;6.03;;;;;;;;;;5028699;28;21004;-63
2023/04/01 03:21:58;;;;;;;6.70;5.23;;;;;;;;;;5009888;28;20487;-63
2023/04/01 03:24:24;;;;;;;10.27;5.67;;;;;;;;;;5022004;28;20446;-64
2023/04/01 03:26:51;;;;;;;10.50;5.17;;;;;;;;;;5013071;28;21252;-63
2023/04/01 03:29:18;;;;;;;11.20;5.83;;;;;;;;;;5012459;28;20515;-63
2023/04/01 03:31:45;;;;;;;10.03;6.10;;;;;;;;;;5029534;28;20968;-63
2023/04/01 03:34:11;;;;;;;8.60;5.60;;;;;;;;;;5013002;28;21044;-63
2023/04/01 03:36:40;;;;;;;9.67;4.63;;;;;;;;;;5029317;28;20486;-63
2023/04/01 03:39:07;;;;;;;7.40;5.17;;;;;;;;;;5014308;28;20577;-63
2023/04/01 03:41:40;;;;;;;6.90;4.53;;;;;;;;;;5013354;28;20556;-63
2023/04/01 03:44:07;;;;;;;7.77;4.60;;;;;;;;;;5009293;28;20455;-63
2023/04/01 03:46:34;;;;;;;5.60;4.30;;;;;;;;;;5011975;28;20449;-63
2023/04/01 03:49:01;;;;;;;6.90;4.57;;;;;;;;;;5030125;28;20454;-63
2023/04/01 03:51:28;;;;;;;7.93;4.43;;;;;;;;;;5029918;28;20187;-63
2023/04/01 03:53:54;;;;;;;9.27;4.77;;;;;;;;;;5008450;28;20455;-63
2023/04/01 03:56:21;;;;;;;7.53;5.00;;;;;;;;;;4993307;28;20442;-63
2023/04/01 03:58:48;;;;;;;13.90;4.80;;;;;;;;;;5007314;28;20453;-63
2023/04/01 04:01:16;;;;;;;7.93;4.90;;;;;;;;;;5005684;28;20504;-64
2023/04/01 04:03:43;;;;;;;11.53;5.40;;;;;;;;;;5027327;28;20453;-64
2023/04/01 04:06:12;;;;;;;7.87;4.73;;;;;;;;;;5003094;28;20482;-64
2023/04/01 04:08:39;;;;;;;8.53;4.93;;;;;;;;;;5031445;28;20260;-65
2023/04/01 04:11:05;;;;;;;13.00;5.20;;;;;;;;;;5018366;28;20450;-64
2023/04/01 04:13:33;;;;;;;9.67;4.50;;;;;;;;;;5009241;28;20450;-62
2023/04/01 04:16:00;;;;;;;9.30;4.70;;;;;;;;;;5007136;28;20502;-65
2023/04/01 04:18:28;;;;;;;8.07;4.70;;;;;;;;;;5009771;28;20540;-65
2023/04/01 04:20:55;;;;;;;8.97;4.80;;;;;;;;;;5006097;28;20462;-65
2023/04/01 04:23:24;;;;;;;6.23;4.30;;;;;;;;;;5010203;28;20462;-66
2023/04/01 04:25:55;;;;;;;8.30;4.20;;;;;;;;;;5006286;28;20458;-64
2023/04/01 04:28:26;;;;;;;7.63;4.40;;;;;;;;;;5030412;28;20435;-65
2023/04/01 04:30:54;;;;;;;10.37;4.50;;;;;;;;;;5009583;28;20928;-63
2023/04/01 04:33:21;;;;;;;9.23;4.70;;;;;;;;;;5010305;28;20446;-64
2023/04/01 04:35:49;;;;;;;8.53;4.60;;;;;;;;;;5009328;28;20512;-64
2023/04/01 04:38:16;;;;;;;16.80;5.07;;;;;;;;;;5008392;28;20504;-63
2023/04/01 04:40:42;;;;;;;8.63;4.80;;;;;;;;;;5010108;28;20486;-63
2023/04/01 04:43:12;;;;;;;9.27;4.70;;;;;;;;;;5008110;28;20500;-63
2023/04/01 04:45:39;;;;;;;15.67;4.83;;;;;;;;;;5010728;28;20553;-63
2023/04/01 04:48:09;;;;;;;7.07;5.17;;;;;;;;;;5007905;28;21310;-64
2023/04/01 04:50:37;;;;;;;8.87;5.20;;;;;;;;;;5009546;28;20482;-65
2023/04/01 04:53:05;;;;;;;9.77;4.83;;;;;;;;;;4993341;28;20795;-65
2023/04/01 04:55:32;;;;;;;12.07;4.93;;;;;;;;;;5008627;28;20482;-65
2023/04/01 04:58:26;;;;;;;10.97;4.93;;;;;;;;;;5023406;28;21018;-65
2023/04/01 05:00:53;;;;;;;7.80;3.77;;;;;;;;;;5022450;28;20495;-67
2023/04/01 05:03:27;;;;;;;10.43;4.70;;;;;;;;;;5016075;28;20451;-65
2023/04/01 05:05:54;;;;;;;8.10;4.03;;;;;;;;;;5013495;28;20470;-62
2023/04/01 05:08:21;;;;;;;8.80;4.60;;;;;;;;;;5026412;28;20474;-65
2023/04/01 05:10:48;;;;;;;9.57;3.97;;;;;;;;;;5009424;28;20446;-64
2023/04/01 05:13:15;;;;;;;9.97;3.90;;;;;;;;;;5008849;28;20453;-65
2023/04/01 05:15:45;;;;;;;12.03;4.37;;;;;;;;;;5009309;28;20973;-65
2023/04/01 05:18:12;;;;;;;13.20;3.97;;;;;;;;;;5007510;28;20478;-64
2023/04/01 05:20:39;;;;;;;35.80;4.70;;;;;;;;;;5026628;28;20456;-65
2023/04/01 05:23:06;;;;;;;17.73;4.13;;;;;;;;;;5008948;28;20453;-64
2023/04/01 05:25:32;;;;;;;20.10;3.97;;;;;;;;;;5010913;28;20439;-65
2023/04/01 05:27:59;;;;;;;20.97;4.30;;;;;;;;;;5003262;28;20443;-65
2023/04/01 05:30:26;;;;;;;20.33;3.70;;;;;;;;;;5005089;28;20581;-64
2023/04/01 05:33:00;;;;;;;22.23;4.87;;;;;;;;;;5020316;28;20460;-66
2023/04/01 05:35:27;;;;;;;36.20;5.07;;;;;;;;;;5011626;28;20454;-67
2023/04/01 05:37:54;;;;;;;26.97;4.00;;;;;;;;;;5007657;28;20513;-65
2023/04/01 05:40:21;;;;;;;24.67;3.60;;;;;;;;;;5016423;28;20976;-66
2023/04/01 05:42:47;;;;;;;28.47;5.20;;;;;;;;;;5007531;28;20458;-63
2023/04/01 05:45:15;;;;;;;35.43;4.63;;;;;;;;;;5008632;28;20269;-66
2023/04/01 05:48:02;;;;;;;55.93;4.80;;;;;;;;;;5022960;28;20458;-64
2023/04/01 05:50:35;;;;;;;65.33;4.40;;;;;;;;;;5007421;28;20454;-63
2023/04/01 05:53:04;;;;;;;33.30;4.20;;;;;;;;;;5007087;28;21183;-64
2023/04/01 05:55:36;;;;;;;51.13;4.53;;;;;;;;;;5025190;28;20548;-64
2023/04/01 05:58:03;;;;;;;42.80;4.03;;;;;;;;;;5007006;28;20505;-64
2023/04/01 06:00:30;;;;;;;35.87;4.30;;;;;;;;;;5007494;28;20457;-66
2023/04/01 06:02:59;;;;;;;47.57;5.10;;;;;;;;;;5007025;28;20549;-66
2023/04/01 06:05:37;;;;;;;23.00;3.73;;;;;;;;;;5007015;28;20520;-66
2023/04/01 06:08:15;;;;;;;18.13;5.40;;;;;;;;;;5006078;28;20458;-66
2023/04/01 06:10:54;;;;;;;23.63;5.20;;;;;;;;;;5008152;28;20504;-66
2023/04/01 06:13:27;;;;;;;13.07;2.70;;;;;;;;;;5019646;28;20458;-67
2023/04/01 06:15:58;;;;;;;5.00;2.80;;;;;;;;;;4990406;28;20861;-67
2023/04/01 06:18:35;;;;;;;5.07;2.80;;;;;;;;;;4997840;28;21213;-66
2023/04/01 06:21:06;;;;;;;2.83;2.10;;;;;;;;;;5006990;28;20500;-67
2023/04/01 06:23:40;;;;;;;3.30;2.20;;;;;;;;;;5008199;28;20458;-65
2023/04/01 06:26:15;;;;;;;2.70;1.93;;;;;;;;;;5005255;28;20463;-66
2023/04/01 06:28:55;;;;;;;2.27;1.40;;;;;;;;;;4989307;28;20822;-67
2023/04/01 06:31:25;;;;;;;2.43;1.70;;;;;;;;;;5011970;28;20457;-65
2023/04/01 06:33:59;;;;;;;3.40;2.20;;;;;;;;;;5007676;28;20821;-65
2023/04/01 06:36:33;;;;;;;3.93;2.20;;;;;;;;;;5023354;28;20558;-67
2023/04/01 06:39:00;;;;;;;2.17;1.77;;;;;;;;;;5015397;28;20491;-65
2023/04/01 06:41:34;;;;;;;3.07;2.10;;;;;;;;;;5007369;28;20532;-64
2023/04/01 06:44:07;;;;;;;3.20;2.43;;;;;;;;;;5010932;28;20572;-65
2023/04/01 06:47:02;;;;;;;3.50;2.73;;;;;;;;;;5009517;28;20433;-66
2023/04/01 06:49:58;;;;;;;3.00;2.40;;;;;;;;;;5021201;28;20460;-66
2023/04/01 06:53:03;;;;;;;4.03;2.50;;;;;;;;;;5028543;28;20553;-66
2023/04/01 06:56:08;;;;;;;3.77;2.60;;;;;;;;;;4976719;28;20453;-66
2023/04/01 06:58:53;;;;;;;3.13;2.50;;;;;;;;;;5002797;28;20488;-65
2023/04/01 07:01:23;;;;;;;4.20;2.80;;;;;;;;;;5012437;28;20447;-67
2023/04/01 07:03:53;;;;;;;4.40;2.80;;;;;;;;;;5014611;28;20527;-65
2023/04/01 07:06:40;;;;;;;3.23;2.60;;;;;;;;;;4998993;28;20444;-64
2023/04/01 07:09:12;;;;;;;3.30;2.57;;;;;;;;;;4998243;28;20586;-68
2023/04/01 07:12:00;;;;;;;5.23;2.90;;;;;;;;;;5013018;28;20544;-65
2023/04/01 07:15:01;;;;;;;4.10;3.13;;;;;;;;;;5026314;28;20467;-66
2023/04/01 07:17:28;;;;;;;4.30;3.10;;;;;;;;;;5011389;28;21000;-65
2023/04/01 07:20:03;;;;;;;7.13;3.73;;;;;;;;;;5014819;28;20454;-65
2023/04/01 07:22:35;;;;;;;8.43;4.73;;;;;;;;;;4995368;28;20457;-66
2023/04/01 07:25:27;;;;;;;5.43;2.70;;;;;;;;;;4985344;28;20534;-67
2023/04/01 07:28:16;;;;;;;3.63;2.63;;;;;;;;;;5010242;28;20462;-66
2023/04/01 07:30:47;;;;;;;7.67;3.70;;;;;;;;;;5014094;28;20488;-66
2023/04/01 07:33:16;;;;;;;8.53;4.40;;;;;;;;;;5031505;28;20445;-64
2023/04/01 07:35:49;;;;;;;4.77;3.70;;;;;;;;;;5015460;28;20446;-65
2023/04/01 07:38:22;;;;;;;8.07;5.40;;;;;;;;;;5015971;28;20547;-64
2023/04/01 07:40:55;;;;;;;7.23;4.03;;;;;;;;;;5015157;28;20450;-65
2023/04/01 07:43:43;;;;;;;7.57;4.37;;;;;;;;;;4995519;28;20505;-66
2023/04/01 07:46:23;;;;;;;6.37;4.40;;;;;;;;;;4998371;28;20466;-65
2023/04/01 07:49:08;;;;;;;4.87;3.30;;;;;;;;;;5000108;28;20444;-64
2023/04/01 07:51:55;;;;;;;8.33;5.47;;;;;;;;;;5000520;28;21003;-64
2023/04/01 07:54:24;;;;;;;7.47;3.77;;;;;;;;;;5015109;28;20549;-64
2023/04/01 07:57:06;;;;;;;17.97;10.00;;;;;;;;;;4996487;28;20913;-65
2023/04/01 07:59:56;;;;;;;8.27;4.33;;;;;;;;;;5032598;28;20856;-65
2023/04/01 08:02:33;;;;;;;3.93;2.40;;;;;;;;;;5014926;28;20484;-65
2023/04/01 08:05:00;;;;;;;6.03;2.70;;;;;;;;;;4999192;28;20511;-64
2023/04/01 08:07:34;;;;;;;3.93;2.60;;;;;;;;;;5018472;28;20461;-65
2023/04/01 08:10:29;;;;;;;4.47;2.70;;;;;;;;;;5013282;28;20466;-65
2023/04/01 08:13:39;;;;;;;3.13;2.53;;;;;;;;;;5021003;28;20967;-66
2023/04/01 08:16:27;;;;;;;6.37;3.87;;;;;;;;;;5024224;28;20461;-65
2023/04/01 08:19:06;;;;;;;15.83;7.63;;;;;;;;;;5014845;28;20488;-66
2023/04/01 08:21:35;;;;;;;5.63;2.53;;;;;;;;;;5015184;28;20481;-65
2023/04/01 08:24:10;;;;;;;5.30;2.10;;;;;;;;;;5015387;28;20438;-65
2023/04/01 08:26:42;;;;;;;3.47;1.77;;;;;;;;;;4994794;28;20466;-65
2023/04/01 08:29:11;;;;;;;15.77;7.70;;;;;;;;;;4993249;28;20443;-66
2023/04/01 08:31:47;;;;;;;5.93;3.40;;;;;;;;;;5029125;28;20447;-65
2023/04/01 08:34:24;;;;;;;4.43;2.60;;;;;;;;;;5042048;28;20442;-65
2023/04/01 08:37:02;;;;;;;5.13;2.70;;;;;;;;;;4996861;28;20980;-64
2023/04/01 08:39:31;;;;;;;17.03;8.47;;;;;;;;;;4993933;28;20582;-64
2023/04/01 08:42:16;;;;;;;9.87;5.17;;;;;;;;;;4999369;28;20439;-64
2023/04/01 08:45:28;;;;;;;4.57;3.07;;;;;;;;;;5014278;28;20968;-64
2023/04/01 08:47:55;;;;;;;11.80;6.17;;;;;;;;;;4997782;28;20690;-65
2023/04/01 08:50:32;;;;;;;6.93;4.63;;;;;;;;;;5008906;28;20457;-65
2023/04/01 08:53:14;;;;;;;17.10;10.97;;;;;;;;;;5012234;28;20449;-65
2023/04/01 08:55:52;;;;;;;9.87;6.77;;;;;;;;;;5005826;28;21075;-65
2023/04/01 08:58:31;;;;;;;10.80;6.47;;;;;;;;;;5023040;28;20899;-64
2023/04/01 09:01:32;;;;;;;5.10;3.13;;;;;;;;;;5021425;28;20450;-65
2023/04/01 09:04:20;;;;;;;3.57;2.60;;;;;;;;;;5013248;28;20883;-65
2023/04/01 09:06:47;;;;;;;4.00;3.03;;;;;;;;;;5011718;28;20485;-65
2023/04/01 09:09:23;;;;;;;20.17;14.07;;;;;;;;;;5029325;28;21221;-65
2023/04/01 09:11:58;;;;;;;13.27;8.63;;;;;;;;;;5023429;28;20481;-66
2023/04/01 09:14:29;;;;;;;3.43;2.10;;;;;;;;;;5007357;28;20543;-67
2023/04/01 09:17:18;;;;;;;4.73;3.63;;;;;;;;;;5010844;28;20994;-63
2023/04/01 09:19:52;;;;;;;2.53;1.73;;;;;;;;;;5031605;28;20564;-63
2023/04/01 09:22:21;;;;;;;2.53;2.00;;;;;;;;;;5010717;28;20481;-64
2023/04/01 09:24:54;;;;;;;4.03;2.17;;;;;;;;;;5012003;28;21011;-64
2023/04/01 09:27:40;;;;;;;3.53;2.10;;;;;;;;;;5011706;28;20446;-63
2023/04/01 09:30:17;;;;;;;1.77;1.37;;;;;;;;;;5011468;28;20556;-64
2023/04/01 09:33:03;;;;;;;5.53;4.63;;;;;;;;;;4995349;28;20441;-63
2023/04/01 09:35:33;;;;;;;3.97;3.07;;;;;;;;;;5011510;28;20438;-64
2023/04/01 09:38:04;;;;;;;3.30;1.97;;;;;;;;;;5010214;28;20465;-64
2023/04/01 09:40:37;;;;;;;2.00;0.97;;;;;;;;;;5011312;28;20449;-65
2023/04/01 09:43:26;;;;;;;3.53;1.50;;;;;;;;;;4995011;28;20452;-65
2023/04/01 09:46:07;;;;;;;2.63;0.90;;;;;;;;;;5011243;28;20845;-65
2023/04/01 09:48:34;;;;;;;2.40;1.17;;;;;;;;;;5011543;28;20945;-64
2023/04/01 09:51:05;;;;;;;2.33;0.80;;;;;;;;;;5011211;28;20447;-65
2023/04/01 09:53:45;;;;;;;1.60;0.67;;;;;;;;;;5026086;28;20434;-65
2023/04/01 09:56:34;;;;;;;2.00;0.90;;;;;;;;;;5007927;28;20447;-64
2023/04/01 09:59:07;;;;;;;1.80;1.30;;;;;;;;;;5007329;28;20565;-64
2023/04/01 10:01:55;;;;;;;3.30;1.77;;;;;;;;;;5008899;28;20558;-64
2023/04/01 10:04:41;;;;;;;2.60;1.27;;;;;;;;;;5007698;28;20447;-65
2023/04/01 10:07:22;;;;;;;2.20;1.30;;;;;;;;;;5008823;28;20474;-64
2023/04/01 10:10:07;;;;;;;2.93;1.93;;;;;;;;;;5007902;28;20439;-65
2023/04/01 10:12:34;;;;;;;2.80;1.70;;;;;;;;;;5008956;28;20451;-64
2023/04/01 10:15:03;;;;;;;2.43;1.70;;;;;;;;;;5008477;28;20439;-64
2023/04/01 10:17:45;;;;;;;2.03;1.30;;;;;;;;;;5007429;28;20821;-66
2023/04/01 10:20:18;;;;;;;2.93;1.70;;;;;;;;;;5008452;28;20942;-65
2023/04/01 10:22:59;;;;;;;2.87;1.80;;;;;;;;;;4991220;28;20446;-65
2023/04/01 10:25:30;;;;;;;4.13;2.00;;;;;;;;;;5007460;28;20473;-64
2023/04/01 10:28:08;;;;;;;1.70;1.30;;;;;;;;;;5007194;28;20538;-64
2023/04/01 10:31:19;;;;;;;2.50;2.00;;;;;;;;;;5000953;28;20489;-65
2023/04/01 10:33:56;;;;;;;3.37;1.60;;;;;;;;;;5010853;28;20496;-64
2023/04/01 10:36:40;;;;;;;2.87;1.73;;;;;;;;;;5028590;28;20442;-65
2023/04/01 10:39:20;;;;;;;3.63;1.70;;;;;;;;;;5010005;28;20841;-65
2023/04/01 10:42:04;;;;;;;2.30;1.37;;;;;;;;;;5010404;28;20783;-64
2023/04/01 10:44:42;;;;;;;2.33;1.40;;;;;;;;;;5027883;28;20438;-64
2023/04/01 10:47:36;;;;;;;1.00;0.90;;;;;;;;;;5009854;28;20446;-64
2023/04/01 10:50:21;;;;;;;1.70;1.17;;;;;;;;;;5010381;28;20442;-64
2023/04/01 10:52:52;;;;;;;2.07;1.13;;;;;;;;;;5009994;28;20495;-64
2023/04/01 10:55:40;;;;;;;2.47;1.20;;;;;;;;;;5028073;28;20438;-64
2023/04/01 10:58:38;;;;;;;2.07;1.43;;;;;;;;;;5012977;28;20600;-64
2023/04/01 11:01:27;;;;;;;2.53;1.57;;;;;;;;;;5028073;28;20434;-64
2023/04/01 11:04:19;;;;;;;3.87;1.90;;;;;;;;;;5027912;28;20937;-65
2023/04/01 11:07:16;;;;;;;3.13;1.30;;;;;;;;;;5027053;28;20453;-64
2023/04/01 11:09:59;;;;;;;2.23;1.43;;;;;;;;;;5010585;28;20442;-64
2023/04/01 11:12:47;;;;;;;1.60;0.90;;;;;;;;;;5010210;28;20438;-64
2023/04/01 11:15:33;;;;;;;1.67;1.47;;;;;;;;;;5027750;28;20848;-64
2023/04/01 11:18:42;;;;;;;1.63;1.03;;;;;;;;;;5010015;28;20485;-65
2023/04/01 11:21:13;;;;;;;2.90;1.93;;;;;;;;;;4930545;29;20538;-65
2023/04/01 11:23:49;;;;;;;4.50;1.97;;;;;;;;;;4947300;28;20450;-64
2023/04/01 11:26:40;;;;;;;1.93;1.63;;;;;;;;;;4972574;28;20490;-65
2023/04/01 11:29:31;;;;;;;4.53;2.87;;;;;;;;;;5002186;28;20813;-64
2023/04/01 11:32:14;;;;;;;10.03;8.27;;;;;;;;;;5009845;28;20454;-64
2023/04/01 11:34:55;;;;;;;9.17;6.93;;;;;;;;;;5010786;28;20991;-64
2023/04/01 11:37:28;;;;;;;7.77;5.57;;;;;;;;;;5027781;28;20442;-64
2023/04/01 11:40:31;;;;;;;10.83;8.30;;;;;;;;;;4995278;28;20505;-65
2023/04/01 11:43:32;;;;;;;2.13;1.80;;;;;;;;;;4990195;28;20530;-65
2023/04/01 11:46:31;;;;;;;3.63;2.87;;;;;;;;;;5029662;28;20845;-64
2023/04/01 11:49:00;;;;;;;3.10;2.80;;;;;;;;;;5015972;28;20450;-64
2023/04/01 11:51:47;;;;;;;2.70;2.23;;;;;;;;;;4984415;28;20473;-64
2023/04/01 11:54:14;;;;;;;2.00;1.33;;;;;;;;;;5029552;28;20832;-64
2023/04/01 11:56:46;;;;;;;6.20;4.13;;;;;;;;;;5033300;28;20422;-64
2023/04/01 11:59:32;;;;;;;2.33;2.07;;;;;;;;;;5015850;28;20963;-64
2023/04/01 12:02:06;;;;;;;4.40;2.23;;;;;;;;;;5032550;28;20446;-65
2023/04/01 12:04:36;;;;;;;2.90;1.40;;;;;;;;;;5034827;28;20452;-65
2023/04/01 12:07:11;;;;;;;2.27;2.07;;;;;;;;;;5016181;28;20458;-64
2023/04/01 12:10:11;;;;;;;3.00;2.20;;;;;;;;;;5034312;28;20541;-64
2023/04/01 12:12:40;;;;;;;4.37;3.50;;;;;;;;;;4993086;28;20446;-64
2023/04/01 12:15:28;;;;;;;1.40;1.27;;;;;;;;;;5024514;28;20442;-64
2023/04/01 12:17:55;;;;;;;1.30;0.97;;;;;;;;;;5015504;28;20867;-64
2023/04/01 12:20:28;;;;;;;4.77;3.20;;;;;;;;;;5033020;28;20524;-64
2023/04/01 12:22:58;;;;;;;1.90;1.70;;;;;;;;;;5032183;28;21012;-64
2023/04/01 12:25:28;;;;;;;3.03;1.47;;;;;;;;;;5025627;28;20507;-65
2023/04/01 12:28:04;;;;;;;1.50;1.00;;;;;;;;;;5032428;28;20446;-64
2023/04/01 12:30:35;;;;;;;1.10;1.00;;;;;;;;;;5029361;28;20540;-64
2023/04/01 12:33:20;;;;;;;1.73;1.00;;;;;;;;;;5032591;28;20821;-64
2023/04/01 12:35:55;;;;;;;2.33;1.30;;;;;;;;;;5022486;28;20443;-64
2023/04/01 12:38:42;;;;;;;1.93;1.40;;;;;;;;;;5009650;28;20466;-64
2023/04/01 12:41:21;;;;;;;1.73;1.07;;;;;;;;;;5031873;28;20442;-63
2023/04/01 12:44:06;;;;;;;1.30;1.00;;;;;;;;;;5028883;28;20450;-64
2023/04/01 12:46:36;;;;;;;2.20;1.40;;;;;;;;;;5030706;28;20519;-64
2023/04/01 12:49:09;;;;;;;0.90;0.70;;;;;;;;;;5032269;28;20929;-64
2023/04/01 12:51:56;;;;;;;1.67;1.10;;;;;;;;;;5014461;28;20460;-66
2023/04/01 12:54:24;;;;;;;1.53;0.70;;;;;;;;;;5031435;28;20451;-64
2023/04/01 12:57:00;;;;;;;3.23;1.40;;;;;;;;;;5031449;28;20465;-65
2023/04/01 12:59:45;;;;;;;1.63;1.30;;;;;;;;;;5025505;28;20576;-63
2023/04/01 13:02:32;;;;;;;3.07;1.30;;;;;;;;;;5030215;28;20484;-64
2023/04/01 13:05:14;;;;;;;1.33;1.10;;;;;;;;;;5030615;28;20521;-64
2023/04/01 13:08:02;;;;;;;2.70;1.20;;;;;;;;;;5035365;28;20437;-65
2023/04/01 13:10:29;;;;;;;4.93;3.00;;;;;;;;;;4982918;28;20472;-64
2023/04/01 13:13:20;;;;;;;2.90;1.70;;;;;;;;;;5031556;28;20431;-63
2023/04/01 13:15:50;;;;;;;6.80;3.90;;;;;;;;;;5031128;28;21242;-63
2023/04/01 13:18:32;;;;;;;3.53;2.20;;;;;;;;;;4996885;28;20439;-64
2023/04/01 13:21:23;;;;;;;2.17;1.73;;;;;;;;;;5031291;28;20450;-64
2023/04/01 13:23:56;;;;;;;3.90;2.70;;;;;;;;;;5032265;28;20473;-63
2023/04/01 13:26:29;;;;;;;3.47;2.40;;;;;;;;;;5031964;28;20430;-63
2023/04/01 13:29:02;;;;;;;2.70;1.57;;;;;;;;;;5029464;28;21043;-64
2023/04/01 13:31:29;;;;;;;2.67;1.70;;;;;;;;;;5028005;28;20454;-64
2023/04/01 13:34:15;;;;;;;6.33;4.33;;;;;;;;;;5023524;28;20450;-64
2023/04/01 13:36:42;;;;;;;6.27;4.03;;;;;;;;;;5029910;28;20442;-64
2023/04/01 13:39:09;;;;;;;10.07;4.47;;;;;;;;;;5038524;28;20884;-64
2023/04/01 13:41:55;;;;;;;2.90;1.50;;;;;;;;;;5031242;28;20465;-64
2023/04/01 13:44:54;;;;;;;1.97;1.43;;;;;;;;;;5020691;28;20442;-64
2023/04/01 13:47:40;;;;;;;8.37;6.30;;;;;;;;;;5024368;28;20980;-64
2023/04/01 13:50:27;;;;;;;2.37;1.53;;;;;;;;;;5030445;28;20521;-64
2023/04/01 13:53:00;;;;;;;4.13;1.73;;;;;;;;;;5011032;28;20477;-64
2023/04/01 13:55:45;;;;;;;10.40;8.07;;;;;;;;;;5031462;28;20444;-64
2023/04/01 13:58:30;;;;;;;4.93;2.80;;;;;;;;;;5031984;28;20896;-63
2023/04/01 14:01:11;;;;;;;4.57;3.17;;;;;;;;;;5028314;28;20564;-64
2023/04/01 14:03:54;;;;;;;3.93;3.57;;;;;;;;;;5033547;28;20968;-64
2023/04/01 14:06:31;;;;;;;3.23;2.63;;;;;;;;;;5018500;28;20525;-63
2023/04/01 14:09:16;;;;;;;2.37;2.07;;;;;;;;;;5031445;28;20809;-63
2023/04/01 14:12:02;;;;;;;2.07;1.30;;;;;;;;;;5025144;28;20446;-63
2023/04/01 14:14:31;;;;;;;4.23;2.53;;;;;;;;;;5031370;28;20538;-63
2023/04/01 14:17:14;;;;;;;2.87;2.20;;;;;;;;;;5030926;28;20454;-65
2023/04/01 14:20:00;;;;;;;4.97;2.40;;;;;;;;;;4996818;28;20466;-63
2023/04/01 14:22:42;;;;;;;3.87;2.50;;;;;;;;;;5030747;28;20438;-66
2023/04/01 14:25:22;;;;;;;3.90;2.70;;;;;;;;;;5029584;28;20449;-64
2023/04/01 14:27:49;;;;;;;19.47;10.70;;;;;;;;;;5023754;28;20477;-63
2023/04/01 14:30:19;;;;;;;22.17;13.80;;;;;;;;;;5030495;28;20433;-63
2023/04/01 14:33:05;;;;;;;7.67;5.17;;;;;;;;;;5030518;28;20434;-63
2023/04/01 14:35:41;;;;;;;4.93;3.73;;;;;;;;;;5031291;28;20437;-63
2023/04/01 14:38:22;;;;;;;4.77;3.17;;;;;;;;;;5020268;28;20532;-63
2023/04/01 14:41:01;;;;;;;4.67;3.10;;;;;;;;;;5030118;28;20478;-63
2023/04/01 14:43:47;;;;;;;5.90;4.60;;;;;;;;;;5023496;28;20446;-63
2023/04/01 14:46:17;;;;;;;7.33;4.57;;;;;;;;;;5030631;28;20944;-63
2023/04/01 14:48:57;;;;;;;9.97;5.77;;;;;;;;;;5013407;28;20534;-63
2023/04/01 14:51:24;;;;;;;10.53;6.37;;;;;;;;;;5031341;28;20470;-63
2023/04/01 14:54:06;;;;;;;12.27;7.60;;;;;;;;;;5004512;28;20458;-63
2023/04/01 14:56:36;;;;;;;14.00;7.60;;;;;;;;;;5030572;28;20453;-63
2023/04/01 14:59:10;;;;;;;10.30;5.77;;;;;;;;;;5030575;28;20941;-64
2023/04/01 15:01:42;;;;;;;11.47;7.07;;;;;;;;;;5013156;28;20640;-64
2023/04/01 15:04:21;;;;;;;8.00;5.80;;;;;;;;;;5030683;28;20464;-64
2023/04/01 15:06:54;;;;;;;10.93;6.10;;;;;;;;;;5029938;28;20541;-64
2023/04/01 15:09:41;;;;;;;12.83;6.63;;;;;;;;;;5030708;28;20550;-63
2023/04/01 15:12:08;;;;;;;8.73;6.47;;;;;;;;;;5030160;28;20441;-64
2023/04/01 15:14:38;;;;;;;8.93;4.80;;;;;;;;;;5030087;28;20423;-64
2023/04/01 15:17:14;;;;;;;10.50;4.90;;;;;;;;;;5033635;28;20977;-63
2023/04/01 15:20:20;;;;;;;10.30;5.90;;;;;;;;;;5033879;28;20470;-63
2023/04/01 15:22:53;;;;;;;13.53;6.10;;;;;;;;;;4992520;28;20454;-64
2023/04/01 15:25:27;;;;;;;11.07;5.57;;;;;;;;;;4992156;28;20546;-64
2023/04/01 15:28:06;;;;;;;14.23;7.80;;;;;;;;;;5016305;28;20455;-64
2023/04/01 15:30:45;;;;;;;8.83;5.57;;;;;;;;;;5033868;28;20469;-63
2023/04/01 15:33:24;;;;;;;10.60;5.00;;;;;;;;;;5033634;28;20457;-63
2023/04/01 15:36:10;;;;;;;14.23;6.10;;;;;;;;;;5034548;28;20871;-63
2023/04/01 15:39:00;;;;;;;14.07;6.63;;;;;;;;;;5041447;28;20516;-64
2023/04/01 15:41:27;;;;;;;12.07;5.93;;;;;;;;;;5031136;28;20491;-64
2023/04/01 15:43:54;;;;;;;14.97;5.40;;;;;;;;;;5033241;28;20850;-64
2023/04/01 15:46:30;;;;;;;14.30;6.23;;;;;;;;;;5033457;28;20512;-63
2023/04/01 15:49:16;;;;;;;12.17;5.43;;;;;;;;;;5034048;28;20539;-64
2023/04/01 15:51:45;;;;;;;10.10;5.50;;;;;;;;;;5033984;28;20441;-64
2023/04/01 15:54:12;;;;;;;9.33;5.40;;;;;;;;;;5007752;28;20461;-64
2023/04/01 15:56:58;;;;;;;11.47;5.40;;;;;;;;;;5033972;28;20430;-64
2023/04/01 15:59:37;;;;;;;9.70;5.10;;;;;;;;;;5033617;28;20492;-64